Time;durP1;ratioP1;P1;durP2;ratioP2;P2;SDS_P1;SDS_P2;PMS_P1;PMS_P2;Temp;Humidity;BMP_temperature;BMP_pressure;BME280_temperature;BME280_humidity;BME280_pressure;Samples;Min_cycle;Max_cycle;Signal;HPM_P1;HPM_P2
2022/09/10 00:01:31;;;;;;;0.20;0.20;;;24.10;65.70;;;;;;5009251;28;20080;-33
2022/09/10 00:03:58;;;;;;;0.20;0.20;;;24.10;65.70;;;;;;5002258;28;20049;-30
2022/09/10 00:06:26;;;;;;;0.20;0.10;;;24.10;65.70;;;;;;5000293;28;20129;-30
2022/09/10 00:08:56;;;;;;;0.77;0.10;;;24.10;65.70;;;;;;5005501;28;20105;-35
2022/09/10 00:11:22;;;;;;;0.10;0.10;;;24.10;65.80;;;;;;4997071;28;20038;-35
2022/09/10 00:13:48;;;;;;;0.32;0.10;;;24.10;65.70;;;;;;5000232;28;20523;-30
2022/09/10 00:16:14;;;;;;;0.45;0.20;;;24.10;65.70;;;;;;5000023;28;20038;-33
2022/09/10 00:18:40;;;;;;;0.45;0.10;;;24.10;65.80;;;;;;4996738;28;20042;-32
2022/09/10 00:21:07;;;;;;;0.28;0.20;;;24.00;65.70;;;;;;4995370;28;20060;-32
2022/09/10 00:23:33;;;;;;;0.47;0.30;;;24.00;65.70;;;;;;5005259;28;20050;-38
2022/09/10 00:25:59;;;;;;;0.20;0.15;;;24.10;65.70;;;;;;4999253;28;20054;-34
2022/09/10 00:28:26;;;;;;;0.40;0.20;;;24.00;65.70;;;;;;5003528;28;20056;-30
2022/09/10 00:30:53;;;;;;;0.10;0.10;;;24.00;65.70;;;;;;4997317;28;20142;-34
2022/09/10 00:33:19;;;;;;;0.55;0.20;;;24.00;65.80;;;;;;4997434;28;20053;-29
2022/09/10 00:35:44;;;;;;;0.43;0.20;;;24.00;65.80;;;;;;4995641;28;20410;-31
2022/09/10 00:38:11;;;;;;;0.28;0.13;;;24.00;65.80;;;;;;5000002;28;20080;-37
2022/09/10 00:40:36;;;;;;;1.10;0.30;;;24.00;65.80;;;;;;4998707;28;20440;-31
2022/09/10 00:43:02;;;;;;;0.20;0.20;;;24.00;65.80;;;;;;5000946;28;20046;-31
2022/09/10 00:45:29;;;;;;;1.02;0.13;;;24.00;65.90;;;;;;5001458;28;20054;-32
2022/09/10 00:48:00;;;;;;;0.38;0.10;;;24.00;65.80;;;;;;4995934;28;20602;-32
2022/09/10 00:50:30;;;;;;;0.32;0.20;;;24.00;65.80;;;;;;4994649;28;20413;-34
2022/09/10 00:52:59;;;;;;;0.35;0.10;;;24.00;65.70;;;;;;4996768;28;20038;-33
2022/09/10 00:55:25;;;;;;;0.55;0.20;;;24.00;65.70;;;;;;5002325;28;20044;-31
2022/09/10 00:57:53;;;;;;;0.20;0.20;;;24.00;65.70;;;;;;4994411;28;20045;-32
2022/09/10 01:00:19;;;;;;;0.30;0.20;;;24.00;65.60;;;;;;5000968;28;20133;-29
2022/09/10 01:02:44;;;;;;;0.10;0.10;;;24.00;65.60;;;;;;5006679;28;20080;-33
2022/09/10 01:05:10;;;;;;;0.38;0.15;;;24.00;65.60;;;;;;4996182;28;20405;-29
2022/09/10 01:07:36;;;;;;;0.63;0.20;;;24.00;65.60;;;;;;5001825;28;20066;-28
2022/09/10 01:10:05;;;;;;;0.10;0.10;;;24.00;65.60;;;;;;4996691;28;20038;-31
2022/09/10 01:12:46;;;;;;;0.10;0.10;;;24.00;65.70;;;;;;4998225;28;20496;-30
2022/09/10 01:15:20;;;;;;;0.52;0.10;;;24.00;65.70;;;;;;4997896;28;20607;-30
2022/09/10 01:17:51;;;;;;;0.13;0.13;;;23.90;65.70;;;;;;4998829;28;20038;-30
2022/09/10 01:20:45;;;;;;;0.10;0.10;;;23.90;65.70;;;;;;4996263;28;20042;-29
2022/09/10 01:23:30;;;;;;;0.20;0.20;;;24.00;65.60;;;;;;5000292;28;20071;-30
2022/09/10 01:26:14;;;;;;;;;;;23.90;65.70;;;;;;5002977;28;20045;-29
2022/09/10 01:28:50;;;;;;;0.73;0.22;;;24.00;65.60;;;;;;4999180;28;19968;-33
2022/09/10 01:31:28;;;;;;;0.40;0.20;;;24.00;65.60;;;;;;5003166;28;20397;-30
2022/09/10 01:34:01;;;;;;;0.17;0.17;;;23.90;65.70;;;;;;4979488;28;20041;-31
2022/09/10 01:36:28;;;;;;;0.40;0.20;;;23.90;65.70;;;;;;5001259;28;20099;-33
2022/09/10 01:38:54;;;;;;;0.08;0.05;;;23.90;66.40;;;;;;5000294;28;20049;-31
2022/09/10 01:41:22;;;;;;;0.40;0.10;;;23.90;65.60;;;;;;4997478;28;20405;-30
2022/09/10 01:43:47;;;;;;;0.10;0.10;;;23.90;65.70;;;;;;5001389;28;20041;-32
2022/09/10 01:46:43;;;;;;;0.05;0.05;;;23.90;65.70;;;;;;5003261;28;20042;-31
2022/09/10 01:49:31;;;;;;;0.35;0.20;;;23.90;65.70;;;;;;4993702;28;20054;-29
2022/09/10 01:52:05;;;;;;;0.30;0.20;;;23.90;65.70;;;;;;4998475;28;20034;-32
2022/09/10 01:54:44;;;;;;;0.40;0.22;;;23.80;65.70;;;;;;4998707;28;20045;-31
2022/09/10 01:57:18;;;;;;;0.45;0.20;;;23.90;65.80;;;;;;4998914;28;20063;-33
2022/09/10 01:59:59;;;;;;;0.28;0.20;;;23.90;65.80;;;;;;5000494;28;20126;-30
2022/09/10 02:02:31;;;;;;;0.40;0.25;;;23.90;65.80;;;;;;5000805;28;20069;-30
2022/09/10 02:04:56;;;;;;;0.57;0.20;;;23.90;65.80;;;;;;4995409;28;20470;-30
2022/09/10 02:07:23;;;;;;;0.38;0.20;;;23.90;65.80;;;;;;4988432;28;20042;-31
2022/09/10 02:09:49;;;;;;;0.13;0.10;;;23.90;65.80;;;;;;4997783;28;20065;-30
2022/09/10 02:12:19;;;;;;;0.38;0.10;;;23.90;65.80;;;;;;4998855;28;20070;-31
2022/09/10 02:14:52;;;;;;;1.73;0.22;;;23.80;65.80;;;;;;4999821;28;20048;-30
2022/09/10 02:17:18;;;;;;;0.10;0.10;;;23.80;65.80;;;;;;4999865;28;20039;-31
2022/09/10 02:19:44;;;;;;;0.30;0.20;;;23.80;65.80;;;;;;4992257;28;20034;-30
2022/09/10 02:22:09;;;;;;;0.73;0.10;;;23.80;65.80;;;;;;5015901;28;20042;-33
2022/09/10 02:24:35;;;;;;;0.30;0.10;;;23.80;66.50;;;;;;4999070;28;20856;-31
2022/09/10 02:27:01;;;;;;;1.60;0.10;;;23.80;65.70;;;;;;5003364;28;20378;-29
2022/09/10 02:29:26;;;;;;;0.20;0.13;;;23.80;65.80;;;;;;5001754;28;20050;-31
2022/09/10 02:31:52;;;;;;;0.35;0.20;;;23.80;65.70;;;;;;5000138;28;20044;-31
2022/09/10 02:34:18;;;;;;;0.50;0.22;;;23.90;66.10;;;;;;4999614;28;20049;-31
2022/09/10 02:36:43;;;;;;;0.10;0.10;;;23.80;65.60;;;;;;5000206;28;20439;-30
2022/09/10 02:39:09;;;;;;;0.40;0.10;;;23.80;65.50;;;;;;5002073;28;20050;-30
2022/09/10 02:41:34;;;;;;;0.13;0.00;;;23.80;65.60;;;;;;4996033;28;20551;-29
2022/09/10 02:44:00;;;;;;;0.55;0.10;;;23.80;65.70;;;;;;5001251;28;20041;-29
2022/09/10 02:46:27;;;;;;;0.10;0.10;;;23.80;65.60;;;;;;4999732;28;20034;-35
2022/09/10 02:48:53;;;;;;;0.20;0.20;;;23.80;65.60;;;;;;4999746;28;20072;-31
2022/09/10 02:51:20;;;;;;;1.27;0.10;;;23.80;66.50;;;;;;5000122;28;20468;-34
2022/09/10 02:53:45;;;;;;;0.30;0.20;;;23.80;65.60;;;;;;5002008;28;20042;-29
2022/09/10 02:56:12;;;;;;;0.20;0.10;;;23.80;65.70;;;;;;4999227;28;20408;-30
2022/09/10 02:58:38;;;;;;;0.10;0.10;;;23.80;65.60;;;;;;5000802;28;20162;-30
2022/09/10 03:01:13;;;;;;;1.33;0.20;;;23.80;65.60;;;;;;4998513;28;20472;-29
2022/09/10 03:03:39;;;;;;;0.10;0.10;;;23.80;65.70;;;;;;4998884;28;20033;-30
2022/09/10 03:06:05;;;;;;;0.10;0.10;;;23.80;65.60;;;;;;4997560;28;20057;-28
2022/09/10 03:08:30;;;;;;;0.30;0.20;;;23.80;65.60;;;;;;4999444;28;20133;-31
2022/09/10 03:10:57;;;;;;;0.10;0.10;;;23.80;65.70;;;;;;4997772;28;20088;-33
2022/09/10 03:13:23;;;;;;;0.20;0.10;;;23.80;65.60;;;;;;5002203;28;20563;-31
2022/09/10 03:15:50;;;;;;;0.20;0.10;;;23.80;65.50;;;;;;4995987;28;20129;-30
2022/09/10 03:18:16;;;;;;;0.45;0.10;;;23.80;65.50;;;;;;4994071;28;20085;-28
2022/09/10 03:20:42;;;;;;;0.28;0.10;;;23.80;65.50;;;;;;5001861;28;20042;-32
2022/09/10 03:23:08;;;;;;;0.45;0.10;;;23.80;65.60;;;;;;4998012;28;20058;-32
2022/09/10 03:25:34;;;;;;;0.20;0.20;;;23.80;65.50;;;;;;4998631;28;20046;-29
2022/09/10 03:28:00;;;;;;;0.30;0.10;;;23.80;65.50;;;;;;5001024;28;20132;-30
2022/09/10 03:30:26;;;;;;;0.52;0.30;;;23.80;65.50;;;;;;5000352;28;20122;-29
2022/09/10 03:32:53;;;;;;;0.43;0.20;;;23.80;65.50;;;;;;5015850;28;20046;-33
2022/09/10 03:35:19;;;;;;;0.10;0.00;;;23.80;65.50;;;;;;5001965;28;20053;-28
2022/09/10 03:37:44;;;;;;;0.30;0.20;;;23.80;65.50;;;;;;5007901;28;20050;-30
2022/09/10 03:40:10;;;;;;;0.85;0.10;;;23.80;65.50;;;;;;5000224;28;20066;-31
2022/09/10 03:42:35;;;;;;;0.30;0.20;;;23.80;65.50;;;;;;5002603;28;20069;-30
2022/09/10 03:45:01;;;;;;;0.10;0.10;;;23.80;65.60;;;;;;5009193;28;20053;-32
2022/09/10 03:47:26;;;;;;;0.40;0.20;;;23.70;65.50;;;;;;5002777;28;20043;-34
2022/09/10 03:49:52;;;;;;;0.30;0.10;;;23.70;65.40;;;;;;5002578;28;20049;-31
2022/09/10 03:52:18;;;;;;;0.40;0.10;;;23.70;66.30;;;;;;5000578;28;20057;-29
2022/09/10 03:54:44;;;;;;;0.20;0.20;;;23.80;65.50;;;;;;4995392;28;20064;-30
2022/09/10 03:57:10;;;;;;;0.20;0.20;;;23.70;65.40;;;;;;5001216;28;20042;-33
2022/09/10 03:59:36;;;;;;;0.10;0.10;;;23.70;65.50;;;;;;4999592;28;20121;-31
2022/09/10 04:02:02;;;;;;;0.28;0.20;;;23.70;65.40;;;;;;5003482;28;20448;-28
2022/09/10 04:04:28;;;;;;;0.10;0.10;;;23.70;65.30;;;;;;5004549;28;20502;-31
2022/09/10 04:06:54;;;;;;;0.20;0.17;;;23.70;65.40;;;;;;4995833;28;20045;-30
2022/09/10 04:09:19;;;;;;;0.17;0.10;;;23.70;65.40;;;;;;4997990;28;20049;-30
2022/09/10 04:11:45;;;;;;;0.17;0.10;;;23.70;65.30;;;;;;4998735;28;20392;-29
2022/09/10 04:14:10;;;;;;;0.10;0.05;;;23.70;65.30;;;;;;5001728;28;20133;-33
2022/09/10 04:16:36;;;;;;;0.10;0.10;;;23.70;65.40;;;;;;5002213;28;20462;-29
2022/09/10 04:19:02;;;;;;;0.40;0.10;;;23.70;65.30;;;;;;4999004;28;20109;-29
2022/09/10 04:21:27;;;;;;;0.13;0.10;;;23.70;65.30;;;;;;5003577;28;20125;-29
2022/09/10 04:23:59;;;;;;;0.30;0.10;;;23.70;66.20;;;;;;4997587;28;20073;-30
2022/09/10 04:26:25;;;;;;;0.28;0.10;;;23.70;65.50;;;;;;4997076;28;20038;-32
2022/09/10 04:28:51;;;;;;;0.10;0.10;;;23.70;65.50;;;;;;4997186;28;20169;-31
2022/09/10 04:31:16;;;;;;;0.10;0.10;;;23.70;65.50;;;;;;5003792;28;20037;-33
2022/09/10 04:33:43;;;;;;;0.63;0.20;;;23.70;65.40;;;;;;5001884;28;20033;-28
2022/09/10 04:36:09;;;;;;;0.52;0.10;;;23.70;65.40;;;;;;4998963;28;20464;-32
2022/09/10 04:38:38;;;;;;;0.73;0.10;;;23.70;65.30;;;;;;4999271;28;20133;-31
2022/09/10 04:41:04;;;;;;;0.10;0.10;;;23.70;65.40;;;;;;5000062;28;20038;-31
2022/09/10 04:43:29;;;;;;;0.38;0.10;;;23.70;65.30;;;;;;5000300;28;20053;-28
2022/09/10 04:45:55;;;;;;;0.30;0.10;;;23.70;65.40;;;;;;4997832;28;20048;-30
2022/09/10 04:48:23;;;;;;;0.55;0.00;;;23.70;65.40;;;;;;5001927;28;20058;-29
2022/09/10 04:50:50;;;;;;;0.40;0.10;;;23.70;65.30;;;;;;5002334;28;20042;-31
2022/09/10 04:53:16;;;;;;;0.20;0.10;;;23.70;65.30;;;;;;5000041;28;20054;-31
2022/09/10 04:55:42;;;;;;;0.20;0.10;;;23.70;65.20;;;;;;5002980;28;20038;-32
2022/09/10 04:58:08;;;;;;;0.30;0.13;;;23.70;65.20;;;;;;4986357;28;20110;-33
2022/09/10 05:00:33;;;;;;;0.15;0.10;;;23.70;65.30;;;;;;4999332;28;20141;-29
2022/09/10 05:02:59;;;;;;;0.32;0.10;;;23.70;65.30;;;;;;4994122;28;20568;-30
2022/09/10 05:05:25;;;;;;;0.10;0.10;;;23.70;65.30;;;;;;4999050;28;20049;-29
2022/09/10 05:07:52;;;;;;;0.10;0.10;;;23.70;65.30;;;;;;5001490;28;20042;-29
2022/09/10 05:10:19;;;;;;;0.10;0.05;;;23.70;65.30;;;;;;4998355;28;20049;-29
2022/09/10 05:12:44;;;;;;;0.73;0.13;;;23.70;65.30;;;;;;4997942;28;21073;-29
2022/09/10 05:15:10;;;;;;;0.20;0.10;;;23.60;65.10;;;;;;4995026;28;20041;-30
2022/09/10 05:17:36;;;;;;;0.20;0.20;;;23.70;65.20;;;;;;4993540;28;20046;-31
2022/09/10 05:20:03;;;;;;;0.30;0.00;;;23.60;65.10;;;;;;4994912;28;20042;-33
2022/09/10 05:22:29;;;;;;;0.32;0.15;;;23.60;65.30;;;;;;4998457;28;20508;-31
2022/09/10 05:24:55;;;;;;;0.32;0.10;;;23.60;65.20;;;;;;5000358;28;20504;-31
2022/09/10 05:27:21;;;;;;;0.32;0.10;;;23.60;65.20;;;;;;4998518;28;20151;-32
2022/09/10 05:29:46;;;;;;;0.10;0.10;;;23.60;65.30;;;;;;4994027;28;20054;-32
2022/09/10 05:32:12;;;;;;;4.75;0.20;;;23.60;65.40;;;;;;4997280;28;20416;-29
2022/09/10 05:34:38;;;;;;;0.38;0.10;;;23.60;65.50;;;;;;4997137;28;20073;-28
2022/09/10 05:37:04;;;;;;;0.60;0.03;;;23.60;65.40;;;;;;4998355;28;20504;-32
2022/09/10 05:39:30;;;;;;;0.35;0.20;;;23.60;65.40;;;;;;5000402;28;20073;-28
2022/09/10 05:41:56;;;;;;;0.10;0.10;;;23.60;65.40;;;;;;4995039;28;20132;-32
2022/09/10 05:44:21;;;;;;;1.40;0.10;;;23.60;65.40;;;;;;4994422;28;20125;-32
2022/09/10 05:46:47;;;;;;;0.50;0.08;;;23.50;65.50;;;;;;4997655;28;20090;-31
2022/09/10 05:49:12;;;;;;;0.55;0.10;;;23.60;65.40;;;;;;4997447;28;20057;-29
2022/09/10 05:51:38;;;;;;;0.20;0.10;;;23.60;65.30;;;;;;5000237;28;20102;-33
2022/09/10 05:54:04;;;;;;;0.10;0.10;;;23.60;65.40;;;;;;4997343;28;20042;-29
2022/09/10 05:56:30;;;;;;;0.50;0.30;;;23.60;65.40;;;;;;5003507;28;20049;-32
2022/09/10 05:58:56;;;;;;;0.30;0.17;;;23.60;65.30;;;;;;4990881;28;20073;-30
2022/09/10 06:01:21;;;;;;;0.05;0.05;;;23.50;65.20;;;;;;4989939;28;20129;-32
2022/09/10 06:03:47;;;;;;;0.15;0.10;;;23.50;65.30;;;;;;4998491;28;20053;-30
2022/09/10 06:06:13;;;;;;;0.17;0.17;;;23.50;65.30;;;;;;4990905;28;20201;-30
2022/09/10 06:08:38;;;;;;;0.40;0.10;;;23.50;65.30;;;;;;4998288;28;20144;-29
2022/09/10 06:11:05;;;;;;;0.25;0.10;;;23.50;65.40;;;;;;4997482;28;20087;-29
2022/09/10 06:13:31;;;;;;;0.30;0.20;;;23.50;65.30;;;;;;4645510;28;9999859;-29
2022/09/10 06:15:57;;;;;;;0.20;0.10;;;23.50;65.40;;;;;;4992827;28;20050;-31
2022/09/10 06:18:22;;;;;;;0.20;0.10;;;23.50;65.30;;;;;;4993615;28;20037;-28
2022/09/10 06:20:48;;;;;;;0.38;0.20;;;23.50;65.20;;;;;;4996093;28;20052;-31
2022/09/10 06:23:15;;;;;;;0.22;0.10;;;23.50;65.20;;;;;;4993766;28;20816;-30
2022/09/10 06:25:41;;;;;;;0.15;0.03;;;23.40;65.10;;;;;;4997970;28;20044;-30
2022/09/10 06:28:07;;;;;;;0.32;0.15;;;23.40;65.00;;;;;;4995052;28;20034;-30
2022/09/10 06:30:32;;;;;;;0.57;0.20;;;23.50;64.70;;;;;;4997286;28;20038;-29
2022/09/10 06:32:58;;;;;;;0.63;0.38;;;23.50;64.30;;;;;;4994087;28;20029;-30
2022/09/10 06:35:24;;;;;;;0.43;0.25;;;23.40;64.50;;;;;;4993611;28;20534;-30
2022/09/10 06:37:50;;;;;;;0.93;0.20;;;23.40;64.10;;;;;;4994224;28;20050;-31
2022/09/10 06:40:15;;;;;;;0.40;0.20;;;23.30;63.00;;;;;;4992794;28;20073;-30
2022/09/10 06:42:41;;;;;;;1.05;0.40;;;23.30;63.80;;;;;;5010429;28;20045;-30
2022/09/10 06:45:07;;;;;;;0.50;0.22;;;23.30;64.40;;;;;;4998097;28;20106;-29
2022/09/10 06:47:32;;;;;;;0.20;0.13;;;23.30;63.60;;;;;;4994935;28;20416;-29
2022/09/10 06:49:58;;;;;;;0.55;0.30;;;23.30;63.60;;;;;;4991134;28;20229;-30
2022/09/10 06:52:24;;;;;;;0.45;0.20;;;23.20;62.90;;;;;;4998651;28;20069;-30
2022/09/10 06:54:50;;;;;;;0.73;0.38;;;23.20;63.40;;;;;;4997308;28;20053;-29
2022/09/10 06:57:16;;;;;;;0.60;0.47;;;23.20;62.70;;;;;;4996410;28;20042;-30
2022/09/10 06:59:42;;;;;;;0.52;0.30;;;23.20;63.40;;;;;;5001204;28;20424;-35
2022/09/10 07:02:08;;;;;;;0.38;0.20;;;23.10;62.90;;;;;;4995664;28;20058;-31
2022/09/10 07:04:34;;;;;;;0.60;0.30;;;23.10;63.20;;;;;;4644211;28;9999931;-32
2022/09/10 07:06:59;;;;;;;2.45;0.35;;;23.20;62.80;;;;;;4998089;28;20038;-33
2022/09/10 07:09:25;;;;;;;2.70;0.22;;;23.10;63.80;;;;;;4997698;28;20050;-32
2022/09/10 07:11:51;;;;;;;0.43;0.30;;;23.10;63.10;;;;;;5001966;28;20041;-30
2022/09/10 07:14:16;;;;;;;0.70;0.40;;;23.10;63.10;;;;;;4999563;28;20389;-31
2022/09/10 07:16:44;;;;;;;0.73;0.28;;;23.20;63.40;;;;;;4998592;28;20038;-34
2022/09/10 07:19:11;;;;;;;0.80;0.40;;;23.10;63.90;;;;;;5002598;28;20038;-29
2022/09/10 07:21:36;;;;;;;0.73;0.28;;;23.20;63.40;;;;;;5001026;28;20042;-31
2022/09/10 07:24:03;;;;;;;1.95;0.40;;;23.20;64.50;;;;;;4999921;28;20532;-31
2022/09/10 07:26:28;;;;;;;2.92;0.68;;;23.10;64.80;;;;;;5003238;28;20180;-32
2022/09/10 07:28:54;;;;;;;2.72;0.55;;;23.10;64.80;;;;;;4999441;28;20124;-34
2022/09/10 07:31:28;;;;;;;1.30;0.63;;;23.10;65.50;;;;;;4998039;28;20187;-32
2022/09/10 07:33:54;;;;;;;1.45;0.50;;;23.20;64.80;;;;;;4999448;28;20557;-29
2022/09/10 07:36:20;;;;;;;0.75;0.40;;;23.30;63.90;;;;;;4998294;28;20079;-34
2022/09/10 07:38:46;;;;;;;1.23;0.70;;;23.40;64.80;;;;;;4998507;28;20575;-32
2022/09/10 07:41:12;;;;;;;1.13;0.40;;;23.40;64.30;;;;;;5001413;28;20461;-31
2022/09/10 07:43:41;;;;;;;0.95;0.55;;;23.50;63.90;;;;;;5002246;28;20043;-32
2022/09/10 07:46:07;;;;;;;0.75;0.47;;;23.80;62.10;;;;;;5001673;28;20046;-29
2022/09/10 07:48:33;;;;;;;1.02;0.45;;;23.80;63.20;;;;;;5003104;28;20045;-33
2022/09/10 07:51:05;;;;;;;2.30;0.40;;;23.90;62.60;;;;;;5009890;28;20054;-31
2022/09/10 07:53:31;;;;;;;0.57;0.35;;;24.10;61.90;;;;;;5008059;28;20428;-29
2022/09/10 07:56:00;;;;;;;2.35;0.50;;;24.20;61.40;;;;;;5001680;28;20042;-34
2022/09/10 07:58:28;;;;;;;1.05;0.52;;;24.30;60.80;;;;;;5002531;28;20098;-31
2022/09/10 08:00:53;;;;;;;1.17;0.43;;;24.20;60.50;;;;;;4997983;28;20512;-33
2022/09/10 08:03:20;;;;;;;0.43;0.30;;;23.90;61.60;;;;;;4998295;28;20102;-31
2022/09/10 08:05:47;;;;;;;0.95;0.50;;;23.70;61.90;;;;;;5000599;28;20054;-29
2022/09/10 08:08:12;;;;;;;0.63;0.40;;;23.60;62.20;;;;;;5002917;28;20046;-31
2022/09/10 08:10:38;;;;;;;1.50;0.50;;;23.50;62.70;;;;;;5008151;28;20046;-31
2022/09/10 08:13:04;;;;;;;1.17;0.40;;;23.40;63.00;;;;;;4999118;28;20564;-31
2022/09/10 08:15:29;;;;;;;0.60;0.52;;;23.40;63.10;;;;;;4999235;28;20121;-31
2022/09/10 08:17:55;;;;;;;2.05;0.63;;;23.40;63.30;;;;;;5001949;28;20151;-29
2022/09/10 08:20:25;;;;;;;1.08;0.50;;;23.30;62.90;;;;;;4994939;28;20034;-33
2022/09/10 08:22:51;;;;;;;1.33;0.40;;;23.30;63.40;;;;;;5007186;28;20124;-31
2022/09/10 08:25:19;;;;;;;0.60;0.50;;;23.30;63.50;;;;;;5002479;28;20042;-30
2022/09/10 08:27:44;;;;;;;0.60;0.40;;;23.30;63.60;;;;;;4994274;28;20041;-35
2022/09/10 08:30:11;;;;;;;1.20;0.30;;;23.40;63.40;;;;;;4997059;28;20047;-33
2022/09/10 08:32:36;;;;;;;0.82;0.50;;;23.40;63.40;;;;;;4999272;28;20054;-32
2022/09/10 08:35:03;;;;;;;0.52;0.30;;;23.40;63.40;;;;;;4993711;28;20463;-33
2022/09/10 08:37:31;;;;;;;1.05;0.40;;;23.40;63.40;;;;;;4994639;28;20058;-30
2022/09/10 08:39:57;;;;;;;1.17;0.30;;;23.40;63.40;;;;;;4993684;28;20039;-33
2022/09/10 08:42:30;;;;;;;1.92;0.70;;;23.40;63.80;;;;;;4991617;28;20153;-34
2022/09/10 08:45:08;;;;;;;0.52;0.40;;;23.40;63.50;;;;;;4981346;28;20408;-30
2022/09/10 08:47:53;;;;;;;0.95;0.45;;;23.60;63.60;;;;;;4993481;28;20050;-31
2022/09/10 08:50:34;;;;;;;2.10;0.40;;;23.60;64.00;;;;;;4998754;28;20066;-38
2022/09/10 08:53:12;;;;;;;1.75;0.45;;;23.60;65.80;;;;;;4994861;28;20142;-30
2022/09/10 08:55:40;;;;;;;1.77;0.40;;;23.60;66.30;;;;;;4992772;28;20076;-30
2022/09/10 08:58:10;;;;;;;1.30;0.47;;;23.60;65.40;;;;;;4993388;28;21301;-31
2022/09/10 09:00:40;;;;;;;1.08;0.50;;;23.50;65.80;;;;;;4994987;28;20045;-32
2022/09/10 09:03:20;;;;;;;2.15;0.43;;;23.60;65.30;;;;;;4998927;28;20149;-33
2022/09/10 09:05:54;;;;;;;5.88;0.88;;;23.50;65.40;;;;;;4993104;28;20527;-30
2022/09/10 09:08:33;;;;;;;0.65;0.45;;;23.50;65.60;;;;;;4998754;28;20046;-34
2022/09/10 09:11:18;;;;;;;0.88;0.40;;;23.50;64.30;;;;;;5009575;28;20042;-31
2022/09/10 09:14:13;;;;;;;0.47;0.35;;;23.50;64.10;;;;;;4993620;28;20058;-31
2022/09/10 09:16:52;;;;;;;0.82;0.30;;;23.50;64.20;;;;;;5057609;28;20044;-33
2022/09/10 09:19:33;;;;;;;3.40;0.30;;;23.50;64.10;;;;;;5060192;28;20047;-31
2022/09/10 09:22:14;;;;;;;0.70;0.25;;;23.50;63.90;;;;;;5030188;28;20043;-32
2022/09/10 09:24:56;;;;;;;1.58;0.40;;;23.60;63.80;;;;;;5056025;28;20037;-32
2022/09/10 09:27:23;;;;;;;0.65;0.40;;;23.50;63.60;;;;;;5059491;28;20048;-33
2022/09/10 09:30:05;;;;;;;0.90;0.40;;;23.50;62.90;;;;;;5043948;28;20052;-34
2022/09/10 09:32:35;;;;;;;1.08;0.38;;;23.60;63.10;;;;;;5056979;28;20407;-35
2022/09/10 09:35:31;;;;;;;1.00;0.50;;;23.60;63.10;;;;;;5059277;28;20507;-29
2022/09/10 09:38:05;;;;;;;0.75;0.43;;;23.60;62.70;;;;;;5057064;28;20036;-31
2022/09/10 09:40:59;;;;;;;6.53;0.40;;;23.60;62.80;;;;;;5060132;28;20047;-30
2022/09/10 09:43:48;;;;;;;0.80;0.40;;;23.60;63.60;;;;;;5056536;28;20160;-29
2022/09/10 09:46:18;;;;;;;0.60;0.30;;;23.50;62.80;;;;;;5056424;28;20033;-29
2022/09/10 09:48:43;;;;;;;0.43;0.38;;;23.50;62.50;;;;;;5038643;28;20140;-29
2022/09/10 09:51:11;;;;;;;0.70;0.32;;;23.50;62.30;;;;;;5043857;28;20123;-33
2022/09/10 09:53:36;;;;;;;0.80;0.40;;;23.60;60.30;;;;;;5003160;28;20054;-33
2022/09/10 09:56:21;;;;;;;1.08;0.40;;;23.40;60.50;;;;;;5005799;28;20510;-32
2022/09/10 09:58:48;;;;;;;1.10;0.45;;;23.40;61.00;;;;;;4995648;28;20056;-31
2022/09/10 10:01:21;;;;;;;1.08;0.47;;;23.40;60.30;;;;;;4998515;28;20098;-31
2022/09/10 10:03:57;;;;;;;1.05;0.63;;;23.40;61.40;;;;;;5013029;28;20426;-35
2022/09/10 10:06:33;;;;;;;0.80;0.50;;;23.40;60.00;;;;;;4989025;28;20054;-33
2022/09/10 10:09:03;;;;;;;1.95;0.50;;;23.50;59.80;;;;;;5010948;28;20195;-29
2022/09/10 10:11:51;;;;;;;0.55;0.40;;;23.40;60.50;;;;;;5010717;28;20500;-37
2022/09/10 10:14:20;;;;;;;0.70;0.28;;;23.40;59.80;;;;;;5009527;28;20061;-35
2022/09/10 10:16:51;;;;;;;0.52;0.35;;;23.30;59.90;;;;;;4992942;28;20125;-32
2022/09/10 10:19:35;;;;;;;0.93;0.57;;;23.30;59.80;;;;;;5014269;28;20103;-33
2022/09/10 10:22:13;;;;;;;1.08;0.40;;;23.30;59.80;;;;;;5008361;28;20117;-32
2022/09/10 10:24:38;;;;;;;0.65;0.30;;;23.30;59.70;;;;;;4998542;28;20050;-31
2022/09/10 10:27:04;;;;;;;1.48;0.38;;;23.30;59.70;;;;;;4998975;28;20052;-33
2022/09/10 10:29:30;;;;;;;0.70;0.30;;;23.40;59.60;;;;;;5009796;28;20058;-35
2022/09/10 10:31:56;;;;;;;0.47;0.30;;;23.40;59.60;;;;;;4996871;28;20046;-32
2022/09/10 10:34:22;;;;;;;1.13;0.35;;;23.40;59.80;;;;;;4994201;28;20054;-33
2022/09/10 10:37:17;;;;;;;0.52;0.25;;;23.40;59.90;;;;;;4996000;28;20061;-33
2022/09/10 10:39:59;;;;;;;0.70;0.52;;;23.40;59.80;;;;;;5006370;28;20076;-29
2022/09/10 10:42:52;;;;;;;2.80;0.45;;;23.40;60.00;;;;;;4997824;28;20388;-30
2022/09/10 10:45:47;;;;;;;0.88;0.50;;;23.40;59.90;;;;;;4999008;28;20058;-31
2022/09/10 10:48:27;;;;;;;1.17;0.30;;;23.40;60.40;;;;;;4995461;28;20058;-30
2022/09/10 10:51:16;;;;;;;0.80;0.32;;;23.40;60.10;;;;;;4999835;28;20046;-31
2022/09/10 10:53:44;;;;;;;1.40;0.40;;;23.30;60.10;;;;;;4978712;28;20069;-30
2022/09/10 10:56:35;;;;;;;0.38;0.38;;;23.30;60.20;;;;;;4996233;28;20130;-33
2022/09/10 10:59:25;;;;;;;0.65;0.40;;;23.30;60.30;;;;;;5015879;28;20050;-30
2022/09/10 11:02:12;;;;;;;2.78;0.60;;;23.40;60.10;;;;;;4996267;28;20055;-32
2022/09/10 11:04:51;;;;;;;1.10;0.40;;;23.30;60.10;;;;;;5010673;28;20114;-31
2022/09/10 11:07:38;;;;;;;2.05;0.70;;;23.40;60.00;;;;;;4997553;28;20069;-30
2022/09/10 11:10:15;;;;;;;1.30;0.70;;;23.40;59.80;;;;;;4991155;28;20066;-34
2022/09/10 11:13:15;;;;;;;3.13;0.80;;;23.40;59.70;;;;;;4995774;28;20087;-32
2022/09/10 11:15:54;;;;;;;0.82;0.52;;;23.30;59.90;;;;;;4657770;28;9999888;-33
2022/09/10 11:18:23;;;;;;;0.82;0.50;;;23.40;60.20;;;;;;4997778;28;20049;-33
2022/09/10 11:21:07;;;;;;;0.85;0.40;;;23.40;59.80;;;;;;5020988;28;20042;-31
2022/09/10 11:23:32;;;;;;;0.90;0.40;;;23.40;59.90;;;;;;4303734;28;10000564;-30
2022/09/10 11:26:17;;;;;;;1.00;0.60;;;23.40;59.90;;;;;;5001150;28;20414;-36
2022/09/10 11:29:21;;;;;;;0.50;0.40;;;23.40;59.80;;;;;;4996798;28;20061;-31
2022/09/10 11:31:52;;;;;;;0.60;0.40;;;23.50;59.40;;;;;;5015121;28;20126;-31
2022/09/10 11:34:43;;;;;;;0.82;0.50;;;23.50;59.10;;;;;;4997445;28;20053;-30
2022/09/10 11:37:17;;;;;;;1.85;0.40;;;23.50;59.00;;;;;;5017374;28;20045;-29
2022/09/10 11:39:47;;;;;;;0.80;0.43;;;23.50;59.10;;;;;;4992111;28;20129;-30
2022/09/10 11:42:20;;;;;;;0.95;0.32;;;23.50;58.50;;;;;;4991553;28;20049;-30
2022/09/10 11:45:24;;;;;;;0.95;0.32;;;23.60;59.60;;;;;;4969011;28;20482;-28
2022/09/10 11:47:59;;;;;;;0.90;0.40;;;23.60;58.10;;;;;;5082686;28;20474;-33
2022/09/10 11:50:31;;;;;;;0.52;0.30;;;23.60;58.10;;;;;;5063579;28;20043;-33
2022/09/10 11:52:57;;;;;;;0.47;0.20;;;23.60;58.80;;;;;;5041789;28;20089;-29
2022/09/10 11:55:26;;;;;;;0.50;0.30;;;23.60;58.10;;;;;;5064340;28;20040;-29
2022/09/10 11:58:06;;;;;;;0.50;0.25;;;23.60;57.60;;;;;;5047519;28;20125;-36
2022/09/10 12:00:35;;;;;;;0.80;0.32;;;23.60;58.30;;;;;;5079774;28;20608;-36
2022/09/10 12:03:19;;;;;;;0.60;0.20;;;23.70;57.90;;;;;;5062881;28;20047;-34
2022/09/10 12:06:01;;;;;;;0.50;0.30;;;23.60;57.30;;;;;;5064039;28;20064;-32
2022/09/10 12:08:50;;;;;;;0.40;0.38;;;23.60;58.30;;;;;;5060196;28;20050;-30
2022/09/10 12:11:26;;;;;;;0.35;0.20;;;23.60;58.00;;;;;;5078903;28;21041;-32
2022/09/10 12:13:52;;;;;;;0.52;0.28;;;23.60;57.20;;;;;;5080296;28;20044;-32
2022/09/10 12:16:28;;;;;;;1.15;0.57;;;23.60;56.60;;;;;;5079551;28;20125;-31
2022/09/10 12:18:53;;;;;;;0.25;0.10;;;23.60;57.10;;;;;;5081182;28;20075;-29
2022/09/10 12:21:25;;;;;;;0.35;0.20;;;23.60;57.80;;;;;;5046821;28;20122;-33
2022/09/10 12:23:51;;;;;;;0.40;0.28;;;23.60;57.10;;;;;;5007455;28;20049;-31
2022/09/10 12:26:19;;;;;;;0.52;0.30;;;23.60;57.10;;;;;;4994056;28;20092;-32
2022/09/10 12:28:48;;;;;;;0.55;0.20;;;23.60;57.40;;;;;;5000652;28;20049;-32
2022/09/10 12:31:14;;;;;;;0.80;0.25;;;23.60;57.60;;;;;;4999844;28;20129;-30
2022/09/10 12:33:43;;;;;;;0.90;0.38;;;23.60;57.80;;;;;;4983844;28;20058;-30
2022/09/10 12:36:09;;;;;;;0.20;0.17;;;23.50;57.00;;;;;;4999395;28;20144;-31
2022/09/10 12:38:48;;;;;;;2.22;0.20;;;23.50;57.70;;;;;;5000754;28;20042;-31
2022/09/10 12:41:23;;;;;;;0.57;0.28;;;23.50;56.80;;;;;;5002735;28;20097;-33
2022/09/10 12:43:54;;;;;;;1.77;0.40;;;23.50;56.60;;;;;;4999127;28;20417;-30
2022/09/10 12:46:22;;;;;;;0.90;0.20;;;23.50;56.70;;;;;;5005277;28;20038;-29
2022/09/10 12:48:57;;;;;;;0.38;0.20;;;23.60;56.50;;;;;;5000742;28;20412;-29
2022/09/10 12:51:32;;;;;;;0.45;0.28;;;23.60;56.90;;;;;;4999426;28;20050;-29
2022/09/10 12:54:22;;;;;;;0.30;0.20;;;23.60;56.60;;;;;;4999777;28;20045;-30
2022/09/10 12:57:04;;;;;;;0.52;0.30;;;23.60;56.70;;;;;;4998753;28;20125;-31
2022/09/10 13:00:03;;;;;;;0.50;0.20;;;23.60;57.80;;;;;;4998782;28;20037;-32
2022/09/10 13:02:36;;;;;;;0.40;0.20;;;23.60;57.30;;;;;;5015589;28;20600;-30
2022/09/10 13:05:30;;;;;;;0.35;0.15;;;23.50;57.80;;;;;;4997614;28;20581;-30